Sulphur Springs, CA

10:17 PM PST on January 19, 2017 (GMT -0800)
| | Change Station

Elev -9999 ft 0.00 °N, 0.00 °E | Updated 8 minutes ago

Mostly Cloudy
Mostly Cloudy
°F
Feels Like °F
N
Wind Variable Wind from North
Gusts mph

Today
High -- | Low -- °F
--% Chance of Precip.
Yesterday
High -- | Low -- °F
Precip. -- in
Pressure 29.89 in
Visibility 10.0 miles
Clouds Scattered Clouds 1700 ft
Mostly Cloudy 2200 ft
Mostly Cloudy 7000 ft
Dew Point Not available.
Humidity Not available.
Rainfall --
Snow Depth Not available.
7:01 AM 5:13 PM
Waning Gibbous, 47% visible
SPECI KCMA 200607Z 25004KT 10SM SCT017 BKN022 BKN070 12/10 A2989 RMK AO2 T01220100
Pressure 29.89 in
Visibility 10.0 miles
Clouds Scattered Clouds 1700 ft
Mostly Cloudy 2200 ft
Mostly Cloudy 7000 ft
Dew Point Not available.
Humidity Not available.
Rainfall --
Snow Depth Not available.
7:01 AM 5:13 PM
Waning Gibbous, 47% visible
SPECI KCMA 200607Z 25004KT 10SM SCT017 BKN022 BKN070 12/10 A2989 RMK AO2 T01220100

Get Your Daily Forecast Email!

Thanks for signing up!

Be on the lookout for a verification email in your inbox.

You'll start receiving the daily forecast at 8 AM.

×

10-Day Weather Forecast

Almanac

Astronomy

Jan. 19, 2017 Rise Set
Actual Time
Civil Twilight
Nautical Twilight
Astronomical Twilight
Moon
Length of Visible Light
Length of Day
Tomorrow will be .
, % of the Moon is Illuminated

Today's Extremes

State Highs State Lows

Community

WunderPhotos

Upload Photos

1,962,540 photos uploaded!

WunderBlog® & News

Nearby

Air Quality

  Air Quality AQ Index Pollutant
Not available.

Snow Depth

Station Depth Elevation

Earthquake Activity

City Distance Mag. Time & Date
Minimum magnitude displayed is 2.5.

Coastal Water Temperatures

Place Temperature

Stations

Nearby Weather Stations

Station Location Temp. Windchill Dew Point Humidity Wind Precip. Elev Updated Type
                   

Watches & Warnings

Small Craft Advisory, Gale Warning
Issued: 8:25 PM PST Jan. 19, 2017 – National Weather Service

... Small Craft Advisory remains in effect until 10 am PST
Friday...
... Gale Warning remains in effect from 10 am to 9 PM PST Friday...

* winds... southwest winds 15 to 25 kt with gusts to 35 kt are
expected when winds are strongest.

* Seas... combined seas of 10 to 13 feet with periods around 14
seconds are expected when waves are largest.

See the coastal waters forecast (cwflox) for more details.

Precautionary/preparedness actions...

A Gale Warning means winds of 34 to 47 knots are imminent or
occuring. Operating a vessel in gale conditions requires
experience and properly equipped vessels. It is highly
recommended that mariners without the proper experience seek safe
Harbor prior to the onset of gale conditions.

A Small Craft Advisory means that hazardous sea conditions will
exist for small craft. Inexperienced mariners... especially those
operating smaller vessels should avoid navigating in these
conditions.